sensor_id;sensor_type;location;lat;lon;timestamp;P1;durP1;ratioP1;P2;durP2;ratioP2
5121;SDS011;2563;52.242;7.956;2023-04-15T20:17:24;32.43;;;14.20;;
5121;SDS011;2563;52.242;7.956;2023-04-15T20:26:33;48.43;;;13.80;;
5121;SDS011;2563;52.242;7.956;2023-04-15T20:28:58;32.53;;;14.40;;
5121;SDS011;2563;52.242;7.956;2023-04-15T20:31:24;37.10;;;13.83;;
5121;SDS011;2563;52.242;7.956;2023-04-15T20:33:50;33.47;;;14.23;;
5121;SDS011;2563;52.242;7.956;2023-04-15T20:36:15;35.17;;;14.10;;
5121;SDS011;2563;52.242;7.956;2023-04-15T20:38:40;35.93;;;15.77;;
5121;SDS011;2563;52.242;7.956;2023-04-15T20:41:06;39.53;;;14.63;;
5121;SDS011;2563;52.242;7.956;2023-04-15T20:43:31;39.60;;;15.47;;
5121;SDS011;2563;52.242;7.956;2023-04-15T20:45:56;32.43;;;13.67;;
5121;SDS011;2563;52.242;7.956;2023-04-15T20:48:22;44.47;;;14.97;;
5121;SDS011;2563;52.242;7.956;2023-04-15T20:50:48;36.07;;;14.77;;
5121;SDS011;2563;52.242;7.956;2023-04-15T20:53:14;37.33;;;14.10;;
5121;SDS011;2563;52.242;7.956;2023-04-15T20:55:40;35.70;;;13.73;;
5121;SDS011;2563;52.242;7.956;2023-04-15T20:58:07;50.10;;;14.33;;
5121;SDS011;2563;52.242;7.956;2023-04-15T21:00:32;41.47;;;16.33;;
5121;SDS011;2563;52.242;7.956;2023-04-15T21:02:58;42.63;;;14.03;;
5121;SDS011;2563;52.242;7.956;2023-04-15T21:05:23;39.23;;;14.07;;
5121;SDS011;2563;52.242;7.956;2023-04-15T21:07:48;42.63;;;14.10;;
5121;SDS011;2563;52.242;7.956;2023-04-15T21:10:14;37.17;;;14.50;;
5121;SDS011;2563;52.242;7.956;2023-04-15T21:12:39;43.47;;;14.37;;
5121;SDS011;2563;52.242;7.956;2023-04-15T21:15:06;39.50;;;15.40;;
5121;SDS011;2563;52.242;7.956;2023-04-15T21:17:32;30.63;;;14.57;;
5121;SDS011;2563;52.242;7.956;2023-04-15T21:19:59;37.30;;;14.53;;
5121;SDS011;2563;52.242;7.956;2023-04-15T21:22:25;37.00;;;14.47;;
5121;SDS011;2563;52.242;7.956;2023-04-15T21:24:50;32.27;;;14.33;;
5121;SDS011;2563;52.242;7.956;2023-04-15T21:27:16;35.17;;;15.00;;
5121;SDS011;2563;52.242;7.956;2023-04-15T21:29:41;35.30;;;14.57;;
5121;SDS011;2563;52.242;7.956;2023-04-15T21:32:06;34.67;;;14.13;;
5121;SDS011;2563;52.242;7.956;2023-04-15T21:34:32;34.63;;;15.03;;
5121;SDS011;2563;52.242;7.956;2023-04-15T21:36:57;38.33;;;14.97;;
5121;SDS011;2563;52.242;7.956;2023-04-15T21:39:22;38.77;;;14.60;;
5121;SDS011;2563;52.242;7.956;2023-04-15T21:41:48;35.83;;;14.43;;
5121;SDS011;2563;52.242;7.956;2023-04-15T21:44:14;36.90;;;16.30;;
5121;SDS011;2563;52.242;7.956;2023-04-15T21:46:39;35.90;;;14.67;;
5121;SDS011;2563;52.242;7.956;2023-04-15T21:49:05;45.97;;;15.17;;
5121;SDS011;2563;52.242;7.956;2023-04-15T21:51:30;44.87;;;16.40;;
5121;SDS011;2563;52.242;7.956;2023-04-15T21:53:56;46.80;;;18.33;;
5121;SDS011;2563;52.242;7.956;2023-04-15T21:56:23;38.90;;;16.53;;
5121;SDS011;2563;52.242;7.956;2023-04-15T21:58:49;45.23;;;16.30;;
5121;SDS011;2563;52.242;7.956;2023-04-15T22:01:15;38.93;;;16.23;;
5121;SDS011;2563;52.242;7.956;2023-04-15T22:03:40;46.00;;;16.47;;
5121;SDS011;2563;52.242;7.956;2023-04-15T22:06:06;37.07;;;16.30;;
5121;SDS011;2563;52.242;7.956;2023-04-15T22:08:31;40.67;;;16.90;;
5121;SDS011;2563;52.242;7.956;2023-04-15T22:10:57;45.73;;;17.70;;
5121;SDS011;2563;52.242;7.956;2023-04-15T22:13:22;38.03;;;17.20;;
5121;SDS011;2563;52.242;7.956;2023-04-15T22:15:48;46.70;;;16.33;;
5121;SDS011;2563;52.242;7.956;2023-04-15T22:18:13;46.27;;;16.43;;
5121;SDS011;2563;52.242;7.956;2023-04-15T22:20:38;45.17;;;17.27;;
5121;SDS011;2563;52.242;7.956;2023-04-15T22:23:04;47.70;;;19.20;;
5121;SDS011;2563;52.242;7.956;2023-04-15T22:25:33;43.03;;;18.47;;
5121;SDS011;2563;52.242;7.956;2023-04-15T22:28:00;44.57;;;17.20;;
5121;SDS011;2563;52.242;7.956;2023-04-15T22:30:27;43.50;;;18.53;;
5121;SDS011;2563;52.242;7.956;2023-04-15T22:32:52;47.33;;;16.97;;
5121;SDS011;2563;52.242;7.956;2023-04-15T22:35:17;45.67;;;17.97;;
5121;SDS011;2563;52.242;7.956;2023-04-15T22:37:43;47.77;;;18.17;;
5121;SDS011;2563;52.242;7.956;2023-04-15T22:40:08;40.07;;;17.37;;
5121;SDS011;2563;52.242;7.956;2023-04-15T22:42:34;47.03;;;18.97;;
5121;SDS011;2563;52.242;7.956;2023-04-15T22:44:59;42.17;;;17.13;;
5121;SDS011;2563;52.242;7.956;2023-04-15T22:47:25;36.40;;;16.80;;
5121;SDS011;2563;52.242;7.956;2023-04-15T22:49:51;47.73;;;19.00;;
5121;SDS011;2563;52.242;7.956;2023-04-15T22:52:16;44.43;;;18.87;;
5121;SDS011;2563;52.242;7.956;2023-04-15T22:54:42;48.37;;;18.70;;
5121;SDS011;2563;52.242;7.956;2023-04-15T22:57:07;40.53;;;16.90;;
5121;SDS011;2563;52.242;7.956;2023-04-15T22:59:32;43.53;;;16.70;;
5121;SDS011;2563;52.242;7.956;2023-04-15T23:01:58;38.80;;;17.87;;
5121;SDS011;2563;52.242;7.956;2023-04-15T23:04:23;54.93;;;19.43;;
5121;SDS011;2563;52.242;7.956;2023-04-15T23:06:49;43.37;;;17.37;;
5121;SDS011;2563;52.242;7.956;2023-04-15T23:09:15;45.07;;;19.30;;
5121;SDS011;2563;52.242;7.956;2023-04-15T23:11:40;41.23;;;17.50;;
5121;SDS011;2563;52.242;7.956;2023-04-15T23:14:05;52.37;;;18.43;;
5121;SDS011;2563;52.242;7.956;2023-04-15T23:16:31;48.27;;;18.90;;
5121;SDS011;2563;52.242;7.956;2023-04-15T23:18:56;41.67;;;16.83;;
5121;SDS011;2563;52.242;7.956;2023-04-15T23:21:21;47.13;;;17.50;;
5121;SDS011;2563;52.242;7.956;2023-04-15T23:23:47;40.13;;;17.10;;
5121;SDS011;2563;52.242;7.956;2023-04-15T23:26:12;44.33;;;18.23;;
5121;SDS011;2563;52.242;7.956;2023-04-15T23:28:37;41.63;;;18.10;;
5121;SDS011;2563;52.242;7.956;2023-04-15T23:31:03;40.10;;;18.00;;
5121;SDS011;2563;52.242;7.956;2023-04-15T23:33:28;51.40;;;18.63;;
5121;SDS011;2563;52.242;7.956;2023-04-15T23:35:54;45.70;;;18.30;;
5121;SDS011;2563;52.242;7.956;2023-04-15T23:38:19;44.23;;;17.40;;
5121;SDS011;2563;52.242;7.956;2023-04-15T23:40:45;42.07;;;17.87;;
5121;SDS011;2563;52.242;7.956;2023-04-15T23:43:10;44.73;;;18.40;;
5121;SDS011;2563;52.242;7.956;2023-04-15T23:45:35;40.33;;;17.60;;
5121;SDS011;2563;52.242;7.956;2023-04-15T23:48:01;43.30;;;18.30;;
5121;SDS011;2563;52.242;7.956;2023-04-15T23:50:26;47.33;;;18.67;;
5121;SDS011;2563;52.242;7.956;2023-04-15T23:52:52;42.03;;;17.23;;
5121;SDS011;2563;52.242;7.956;2023-04-15T23:55:17;37.50;;;17.10;;
5121;SDS011;2563;52.242;7.956;2023-04-15T23:57:43;39.80;;;16.60;;
